sensor_id;sensor_type;location;lat;lon;timestamp;P1;durP1;ratioP1;P2;durP2;ratioP2
41653;SDS011;68687;52.030;7.110;2023-05-24T00:01:53;20.63;;;7.53;;
41653;SDS011;68687;52.030;7.110;2023-05-24T00:04:23;18.58;;;6.35;;
41653;SDS011;68687;52.030;7.110;2023-05-24T00:06:54;31.38;;;6.63;;
41653;SDS011;68687;52.030;7.110;2023-05-24T00:09:19;15.45;;;6.55;;
41653;SDS011;68687;52.030;7.110;2023-05-24T00:11:45;12.80;;;5.78;;
41653;SDS011;68687;52.030;7.110;2023-05-24T00:14:10;17.67;;;6.45;;
41653;SDS011;68687;52.030;7.110;2023-05-24T00:16:35;19.15;;;7.30;;
41653;SDS011;68687;52.030;7.110;2023-05-24T00:19:04;18.75;;;5.78;;
41653;SDS011;68687;52.030;7.110;2023-05-24T00:21:32;23.35;;;7.28;;
41653;SDS011;68687;52.030;7.110;2023-05-24T00:24:06;19.42;;;7.28;;
41653;SDS011;68687;52.030;7.110;2023-05-24T00:26:32;22.65;;;6.95;;
41653;SDS011;68687;52.030;7.110;2023-05-24T00:29:00;24.20;;;7.30;;
41653;SDS011;68687;52.030;7.110;2023-05-24T00:31:25;24.52;;;6.97;;
41653;SDS011;68687;52.030;7.110;2023-05-24T00:33:51;20.13;;;6.93;;
41653;SDS011;68687;52.030;7.110;2023-05-24T00:36:16;17.23;;;6.72;;
41653;SDS011;68687;52.030;7.110;2023-05-24T00:38:41;18.80;;;6.78;;
41653;SDS011;68687;52.030;7.110;2023-05-24T00:41:13;21.38;;;6.38;;
41653;SDS011;68687;52.030;7.110;2023-05-24T00:43:44;22.50;;;7.05;;
41653;SDS011;68687;52.030;7.110;2023-05-24T00:46:11;16.95;;;6.40;;
41653;SDS011;68687;52.030;7.110;2023-05-24T00:48:40;28.85;;;7.53;;
41653;SDS011;68687;52.030;7.110;2023-05-24T00:51:06;18.33;;;6.97;;
41653;SDS011;68687;52.030;7.110;2023-05-24T00:53:31;19.83;;;7.25;;
41653;SDS011;68687;52.030;7.110;2023-05-24T00:56:00;25.60;;;6.97;;
41653;SDS011;68687;52.030;7.110;2023-05-24T00:58:27;11.60;;;6.60;;
41653;SDS011;68687;52.030;7.110;2023-05-24T01:00:58;16.65;;;6.95;;
41653;SDS011;68687;52.030;7.110;2023-05-24T01:03:25;21.80;;;7.00;;
41653;SDS011;68687;52.030;7.110;2023-05-24T01:05:55;24.27;;;8.82;;
41653;SDS011;68687;52.030;7.110;2023-05-24T01:08:27;24.05;;;8.73;;
41653;SDS011;68687;52.030;7.110;2023-05-24T01:11:52;20.60;;;6.45;;
41653;SDS011;68687;52.030;7.110;2023-05-24T01:16:39;18.00;;;6.68;;
41653;SDS011;68687;52.030;7.110;2023-05-24T01:22:17;16.08;;;7.18;;
41653;SDS011;68687;52.030;7.110;2023-05-24T01:24:54;18.40;;;6.10;;
41653;SDS011;68687;52.030;7.110;2023-05-24T01:29:57;18.55;;;6.20;;
41653;SDS011;68687;52.030;7.110;2023-05-24T01:32:23;16.67;;;6.43;;
41653;SDS011;68687;52.030;7.110;2023-05-24T01:34:49;18.17;;;6.40;;
41653;SDS011;68687;52.030;7.110;2023-05-24T01:37:15;23.55;;;7.82;;
41653;SDS011;68687;52.030;7.110;2023-05-24T01:39:40;30.70;;;8.45;;
41653;SDS011;68687;52.030;7.110;2023-05-24T01:45:21;16.23;;;6.60;;
41653;SDS011;68687;52.030;7.110;2023-05-24T01:48:00;18.77;;;7.07;;
41653;SDS011;68687;52.030;7.110;2023-05-24T01:50:31;19.90;;;7.43;;
41653;SDS011;68687;52.030;7.110;2023-05-24T01:53:06;20.38;;;6.97;;
41653;SDS011;68687;52.030;7.110;2023-05-24T01:55:33;20.98;;;6.90;;
41653;SDS011;68687;52.030;7.110;2023-05-24T01:58:02;15.18;;;6.63;;
41653;SDS011;68687;52.030;7.110;2023-05-24T02:00:28;22.00;;;7.57;;
41653;SDS011;68687;52.030;7.110;2023-05-24T02:03:04;19.85;;;7.35;;
41653;SDS011;68687;52.030;7.110;2023-05-24T02:08:01;13.43;;;6.82;;
41653;SDS011;68687;52.030;7.110;2023-05-24T02:10:27;17.88;;;6.90;;
41653;SDS011;68687;52.030;7.110;2023-05-24T02:12:52;13.73;;;6.03;;
41653;SDS011;68687;52.030;7.110;2023-05-24T02:15:17;17.40;;;6.75;;
41653;SDS011;68687;52.030;7.110;2023-05-24T02:17:45;11.02;;;5.90;;
41653;SDS011;68687;52.030;7.110;2023-05-24T02:20:15;17.63;;;6.70;;
41653;SDS011;68687;52.030;7.110;2023-05-24T02:22:44;21.13;;;6.15;;
41653;SDS011;68687;52.030;7.110;2023-05-24T02:25:09;21.00;;;6.70;;
41653;SDS011;68687;52.030;7.110;2023-05-24T02:27:34;17.60;;;6.85;;
41653;SDS011;68687;52.030;7.110;2023-05-24T02:30:00;26.40;;;6.70;;
41653;SDS011;68687;52.030;7.110;2023-05-24T02:32:25;12.73;;;6.53;;
41653;SDS011;68687;52.030;7.110;2023-05-24T02:34:50;17.77;;;7.47;;
41653;SDS011;68687;52.030;7.110;2023-05-24T02:37:15;31.85;;;7.30;;
41653;SDS011;68687;52.030;7.110;2023-05-24T02:39:41;16.67;;;7.97;;
41653;SDS011;68687;52.030;7.110;2023-05-24T02:42:12;30.50;;;8.82;;
41653;SDS011;68687;52.030;7.110;2023-05-24T02:44:37;14.35;;;7.38;;
41653;SDS011;68687;52.030;7.110;2023-05-24T02:47:06;25.73;;;8.40;;
41653;SDS011;68687;52.030;7.110;2023-05-24T02:49:34;25.48;;;8.15;;
41653;SDS011;68687;52.030;7.110;2023-05-24T02:51:59;18.75;;;7.75;;
41653;SDS011;68687;52.030;7.110;2023-05-24T02:54:25;20.40;;;7.07;;
41653;SDS011;68687;52.030;7.110;2023-05-24T02:56:50;30.70;;;8.50;;
41653;SDS011;68687;52.030;7.110;2023-05-24T02:59:15;15.38;;;6.85;;
41653;SDS011;68687;52.030;7.110;2023-05-24T03:01:47;20.13;;;7.30;;
41653;SDS011;68687;52.030;7.110;2023-05-24T03:04:12;21.17;;;7.72;;
41653;SDS011;68687;52.030;7.110;2023-05-24T03:06:37;18.42;;;7.93;;
41653;SDS011;68687;52.030;7.110;2023-05-24T03:09:06;24.45;;;8.15;;
41653;SDS011;68687;52.030;7.110;2023-05-24T03:11:34;26.00;;;9.63;;
41653;SDS011;68687;52.030;7.110;2023-05-24T03:14:03;18.52;;;7.63;;
41653;SDS011;68687;52.030;7.110;2023-05-24T03:16:30;26.70;;;8.40;;
41653;SDS011;68687;52.030;7.110;2023-05-24T03:18:56;15.85;;;8.13;;
41653;SDS011;68687;52.030;7.110;2023-05-24T03:21:22;23.40;;;9.38;;
41653;SDS011;68687;52.030;7.110;2023-05-24T03:23:49;26.02;;;8.63;;
41653;SDS011;68687;52.030;7.110;2023-05-24T03:26:17;24.48;;;8.52;;
41653;SDS011;68687;52.030;7.110;2023-05-24T03:28:49;23.73;;;9.20;;
41653;SDS011;68687;52.030;7.110;2023-05-24T03:31:18;24.27;;;8.63;;
41653;SDS011;68687;52.030;7.110;2023-05-24T03:33:44;23.65;;;7.35;;
41653;SDS011;68687;52.030;7.110;2023-05-24T03:36:13;25.27;;;8.27;;
41653;SDS011;68687;52.030;7.110;2023-05-24T03:38:38;21.05;;;7.28;;
41653;SDS011;68687;52.030;7.110;2023-05-24T03:41:03;21.38;;;8.60;;
41653;SDS011;68687;52.030;7.110;2023-05-24T03:43:29;21.42;;;8.52;;
41653;SDS011;68687;52.030;7.110;2023-05-24T03:45:54;21.48;;;7.10;;
41653;SDS011;68687;52.030;7.110;2023-05-24T03:48:22;25.65;;;7.70;;
41653;SDS011;68687;52.030;7.110;2023-05-24T03:50:48;20.45;;;9.27;;
41653;SDS011;68687;52.030;7.110;2023-05-24T03:53:13;27.73;;;8.43;;
41653;SDS011;68687;52.030;7.110;2023-05-24T03:55:41;25.45;;;9.43;;
41653;SDS011;68687;52.030;7.110;2023-05-24T03:58:10;20.25;;;7.43;;
41653;SDS011;68687;52.030;7.110;2023-05-24T04:00:36;31.25;;;8.65;;
41653;SDS011;68687;52.030;7.110;2023-05-24T04:03:08;24.77;;;8.05;;
41653;SDS011;68687;52.030;7.110;2023-05-24T04:05:33;36.60;;;11.25;;
41653;SDS011;68687;52.030;7.110;2023-05-24T04:07:59;31.30;;;8.80;;
41653;SDS011;68687;52.030;7.110;2023-05-24T04:10:24;26.48;;;8.38;;
41653;SDS011;68687;52.030;7.110;2023-05-24T04:12:49;25.65;;;7.88;;
41653;SDS011;68687;52.030;7.110;2023-05-24T04:15:15;36.40;;;8.95;;
41653;SDS011;68687;52.030;7.110;2023-05-24T04:17:41;32.45;;;8.27;;
41653;SDS011;68687;52.030;7.110;2023-05-24T04:20:10;28.25;;;8.48;;
41653;SDS011;68687;52.030;7.110;2023-05-24T04:22:36;25.00;;;8.90;;
41653;SDS011;68687;52.030;7.110;2023-05-24T04:25:14;32.72;;;10.20;;
41653;SDS011;68687;52.030;7.110;2023-05-24T04:27:39;25.73;;;8.82;;
41653;SDS011;68687;52.030;7.110;2023-05-24T04:30:05;29.40;;;8.30;;
41653;SDS011;68687;52.030;7.110;2023-05-24T04:32:37;29.35;;;8.60;;
41653;SDS011;68687;52.030;7.110;2023-05-24T04:35:04;29.13;;;8.82;;
41653;SDS011;68687;52.030;7.110;2023-05-24T04:37:31;31.63;;;9.40;;
41653;SDS011;68687;52.030;7.110;2023-05-24T04:40:03;32.47;;;9.40;;
41653;SDS011;68687;52.030;7.110;2023-05-24T04:42:32;38.17;;;9.65;;
41653;SDS011;68687;52.030;7.110;2023-05-24T04:44:58;34.10;;;8.88;;
41653;SDS011;68687;52.030;7.110;2023-05-24T04:47:24;31.98;;;9.45;;
41653;SDS011;68687;52.030;7.110;2023-05-24T04:49:50;44.40;;;9.77;;
41653;SDS011;68687;52.030;7.110;2023-05-24T04:52:19;32.78;;;9.25;;
41653;SDS011;68687;52.030;7.110;2023-05-24T04:54:44;32.10;;;10.25;;
41653;SDS011;68687;52.030;7.110;2023-05-24T04:57:16;35.92;;;12.45;;
41653;SDS011;68687;52.030;7.110;2023-05-24T04:59:47;29.75;;;9.75;;
41653;SDS011;68687;52.030;7.110;2023-05-24T05:02:13;29.35;;;9.18;;
41653;SDS011;68687;52.030;7.110;2023-05-24T05:04:38;31.35;;;9.35;;
41653;SDS011;68687;52.030;7.110;2023-05-24T05:07:03;34.17;;;10.02;;
41653;SDS011;68687;52.030;7.110;2023-05-24T05:09:29;29.90;;;8.90;;
41653;SDS011;68687;52.030;7.110;2023-05-24T05:12:00;34.33;;;10.40;;
41653;SDS011;68687;52.030;7.110;2023-05-24T05:14:26;30.88;;;8.82;;
41653;SDS011;68687;52.030;7.110;2023-05-24T05:16:51;28.08;;;8.10;;
41653;SDS011;68687;52.030;7.110;2023-05-24T05:19:17;27.20;;;9.65;;
41653;SDS011;68687;52.030;7.110;2023-05-24T05:21:43;44.42;;;10.10;;
41653;SDS011;68687;52.030;7.110;2023-05-24T05:24:08;37.08;;;9.82;;
41653;SDS011;68687;52.030;7.110;2023-05-24T05:26:33;52.67;;;19.13;;
41653;SDS011;68687;52.030;7.110;2023-05-24T05:29:05;36.65;;;9.45;;
41653;SDS011;68687;52.030;7.110;2023-05-24T05:31:30;39.97;;;10.07;;
41653;SDS011;68687;52.030;7.110;2023-05-24T05:33:56;30.40;;;10.50;;
41653;SDS011;68687;52.030;7.110;2023-05-24T05:36:21;38.90;;;11.15;;
41653;SDS011;68687;52.030;7.110;2023-05-24T05:38:46;32.40;;;8.75;;
41653;SDS011;68687;52.030;7.110;2023-05-24T05:41:21;40.65;;;9.65;;
41653;SDS011;68687;52.030;7.110;2023-05-24T05:43:46;41.35;;;9.82;;
41653;SDS011;68687;52.030;7.110;2023-05-24T05:46:14;35.67;;;9.43;;
41653;SDS011;68687;52.030;7.110;2023-05-24T05:48:40;26.35;;;8.15;;
41653;SDS011;68687;52.030;7.110;2023-05-24T05:51:17;36.13;;;10.60;;
41653;SDS011;68687;52.030;7.110;2023-05-24T05:53:42;30.02;;;9.13;;
41653;SDS011;68687;52.030;7.110;2023-05-24T05:56:08;30.35;;;9.50;;
41653;SDS011;68687;52.030;7.110;2023-05-24T05:58:33;29.73;;;8.50;;
41653;SDS011;68687;52.030;7.110;2023-05-24T06:01:04;32.63;;;8.73;;
41653;SDS011;68687;52.030;7.110;2023-05-24T06:03:29;31.75;;;8.13;;
41653;SDS011;68687;52.030;7.110;2023-05-24T06:05:58;38.67;;;8.45;;
41653;SDS011;68687;52.030;7.110;2023-05-24T06:08:23;33.70;;;9.75;;
41653;SDS011;68687;52.030;7.110;2023-05-24T06:10:48;40.53;;;9.55;;
41653;SDS011;68687;52.030;7.110;2023-05-24T06:13:13;30.85;;;8.98;;
41653;SDS011;68687;52.030;7.110;2023-05-24T06:15:48;25.55;;;8.40;;
41653;SDS011;68687;52.030;7.110;2023-05-24T06:18:16;39.03;;;9.77;;
41653;SDS011;68687;52.030;7.110;2023-05-24T06:20:42;27.67;;;7.68;;
41653;SDS011;68687;52.030;7.110;2023-05-24T06:23:08;35.45;;;8.05;;
41653;SDS011;68687;52.030;7.110;2023-05-24T06:25:39;24.73;;;8.35;;
41653;SDS011;68687;52.030;7.110;2023-05-24T06:28:07;27.90;;;8.75;;
41653;SDS011;68687;52.030;7.110;2023-05-24T06:30:36;29.73;;;8.57;;
41653;SDS011;68687;52.030;7.110;2023-05-24T06:33:04;30.02;;;7.47;;
41653;SDS011;68687;52.030;7.110;2023-05-24T06:35:29;36.10;;;10.48;;
41653;SDS011;68687;52.030;7.110;2023-05-24T06:37:55;23.10;;;8.32;;
41653;SDS011;68687;52.030;7.110;2023-05-24T06:40:21;29.48;;;8.60;;
41653;SDS011;68687;52.030;7.110;2023-05-24T06:42:47;42.45;;;10.80;;
41653;SDS011;68687;52.030;7.110;2023-05-24T06:45:15;30.33;;;8.95;;
41653;SDS011;68687;52.030;7.110;2023-05-24T06:47:40;27.80;;;7.28;;
41653;SDS011;68687;52.030;7.110;2023-05-24T06:50:06;28.40;;;7.93;;
41653;SDS011;68687;52.030;7.110;2023-05-24T06:52:32;39.75;;;7.93;;
41653;SDS011;68687;52.030;7.110;2023-05-24T06:54:57;25.27;;;8.35;;
41653;SDS011;68687;52.030;7.110;2023-05-24T06:57:23;25.45;;;7.15;;
41653;SDS011;68687;52.030;7.110;2023-05-24T06:59:49;25.77;;;7.15;;
41653;SDS011;68687;52.030;7.110;2023-05-24T07:02:14;28.10;;;8.35;;
41653;SDS011;68687;52.030;7.110;2023-05-24T07:04:40;30.73;;;7.53;;
41653;SDS011;68687;52.030;7.110;2023-05-24T07:07:06;31.92;;;8.77;;
41653;SDS011;68687;52.030;7.110;2023-05-24T07:09:36;27.85;;;7.57;;
41653;SDS011;68687;52.030;7.110;2023-05-24T07:12:03;37.10;;;8.18;;
41653;SDS011;68687;52.030;7.110;2023-05-24T07:14:29;30.60;;;8.07;;
41653;SDS011;68687;52.030;7.110;2023-05-24T07:16:57;27.65;;;7.13;;
41653;SDS011;68687;52.030;7.110;2023-05-24T07:19:26;30.75;;;7.85;;
41653;SDS011;68687;52.030;7.110;2023-05-24T07:21:53;23.23;;;7.38;;
41653;SDS011;68687;52.030;7.110;2023-05-24T07:24:21;25.10;;;7.70;;
41653;SDS011;68687;52.030;7.110;2023-05-24T07:26:48;26.25;;;7.78;;
41653;SDS011;68687;52.030;7.110;2023-05-24T07:29:14;24.65;;;7.82;;
41653;SDS011;68687;52.030;7.110;2023-05-24T07:31:39;35.00;;;7.75;;
41653;SDS011;68687;52.030;7.110;2023-05-24T07:34:04;25.52;;;7.78;;
41653;SDS011;68687;52.030;7.110;2023-05-24T07:36:30;29.75;;;7.15;;
41653;SDS011;68687;52.030;7.110;2023-05-24T07:38:57;30.50;;;7.28;;
41653;SDS011;68687;52.030;7.110;2023-05-24T07:41:25;22.00;;;6.75;;
41653;SDS011;68687;52.030;7.110;2023-05-24T07:44:00;28.98;;;6.88;;
41653;SDS011;68687;52.030;7.110;2023-05-24T07:46:29;24.20;;;7.20;;
41653;SDS011;68687;52.030;7.110;2023-05-24T07:48:57;20.25;;;7.38;;
41653;SDS011;68687;52.030;7.110;2023-05-24T07:51:26;26.17;;;6.70;;
41653;SDS011;68687;52.030;7.110;2023-05-24T07:53:51;31.70;;;7.60;;
41653;SDS011;68687;52.030;7.110;2023-05-24T07:56:19;38.60;;;7.18;;
41653;SDS011;68687;52.030;7.110;2023-05-24T07:58:48;35.20;;;7.95;;
41653;SDS011;68687;52.030;7.110;2023-05-24T08:01:18;29.88;;;7.22;;
41653;SDS011;68687;52.030;7.110;2023-05-24T08:03:46;28.13;;;6.75;;
41653;SDS011;68687;52.030;7.110;2023-05-24T08:06:12;29.23;;;7.20;;
41653;SDS011;68687;52.030;7.110;2023-05-24T08:08:37;24.42;;;7.45;;
41653;SDS011;68687;52.030;7.110;2023-05-24T08:11:03;26.40;;;6.95;;
41653;SDS011;68687;52.030;7.110;2023-05-24T08:13:28;27.75;;;7.38;;
41653;SDS011;68687;52.030;7.110;2023-05-24T08:15:57;21.88;;;6.70;;
41653;SDS011;68687;52.030;7.110;2023-05-24T08:18:25;21.65;;;8.18;;
41653;SDS011;68687;52.030;7.110;2023-05-24T08:20:50;22.23;;;7.45;;
41653;SDS011;68687;52.030;7.110;2023-05-24T08:23:15;23.95;;;6.78;;
41653;SDS011;68687;52.030;7.110;2023-05-24T08:25:41;21.27;;;6.35;;
41653;SDS011;68687;52.030;7.110;2023-05-24T08:28:09;17.80;;;6.78;;
41653;SDS011;68687;52.030;7.110;2023-05-24T08:30:35;27.13;;;7.00;;
41653;SDS011;68687;52.030;7.110;2023-05-24T08:33:04;27.15;;;6.80;;
41653;SDS011;68687;52.030;7.110;2023-05-24T08:35:29;17.35;;;6.47;;
41653;SDS011;68687;52.030;7.110;2023-05-24T08:37:55;25.10;;;6.93;;
41653;SDS011;68687;52.030;7.110;2023-05-24T08:40:23;25.55;;;6.88;;
41653;SDS011;68687;52.030;7.110;2023-05-24T08:42:55;23.83;;;8.18;;
41653;SDS011;68687;52.030;7.110;2023-05-24T08:45:24;22.90;;;6.75;;
41653;SDS011;68687;52.030;7.110;2023-05-24T08:47:50;24.73;;;6.63;;
41653;SDS011;68687;52.030;7.110;2023-05-24T08:50:16;24.75;;;9.32;;
41653;SDS011;68687;52.030;7.110;2023-05-24T08:52:42;23.27;;;7.05;;
41653;SDS011;68687;52.030;7.110;2023-05-24T08:55:12;31.05;;;7.80;;
41653;SDS011;68687;52.030;7.110;2023-05-24T08:57:42;23.25;;;8.77;;
41653;SDS011;68687;52.030;7.110;2023-05-24T09:00:10;20.88;;;6.15;;
41653;SDS011;68687;52.030;7.110;2023-05-24T09:02:40;25.33;;;6.70;;
41653;SDS011;68687;52.030;7.110;2023-05-24T09:05:08;26.58;;;7.97;;
41653;SDS011;68687;52.030;7.110;2023-05-24T09:07:37;23.00;;;7.18;;
41653;SDS011;68687;52.030;7.110;2023-05-24T09:10:09;23.90;;;7.50;;
41653;SDS011;68687;52.030;7.110;2023-05-24T09:12:35;24.95;;;7.72;;
41653;SDS011;68687;52.030;7.110;2023-05-24T09:15:02;20.88;;;6.85;;
41653;SDS011;68687;52.030;7.110;2023-05-24T09:17:29;24.77;;;7.15;;
41653;SDS011;68687;52.030;7.110;2023-05-24T09:19:56;25.85;;;7.90;;
41653;SDS011;68687;52.030;7.110;2023-05-24T09:22:23;19.35;;;6.80;;
41653;SDS011;68687;52.030;7.110;2023-05-24T09:24:57;22.58;;;7.22;;
41653;SDS011;68687;52.030;7.110;2023-05-24T09:27:32;18.75;;;6.80;;
41653;SDS011;68687;52.030;7.110;2023-05-24T09:30:02;18.02;;;6.47;;
41653;SDS011;68687;52.030;7.110;2023-05-24T09:32:35;19.92;;;6.90;;
41653;SDS011;68687;52.030;7.110;2023-05-24T09:35:00;27.15;;;8.00;;
41653;SDS011;68687;52.030;7.110;2023-05-24T09:37:26;31.25;;;7.93;;
41653;SDS011;68687;52.030;7.110;2023-05-24T09:39:53;20.15;;;6.68;;
41653;SDS011;68687;52.030;7.110;2023-05-24T09:42:20;25.83;;;7.20;;
41653;SDS011;68687;52.030;7.110;2023-05-24T09:44:58;27.58;;;7.90;;
41653;SDS011;68687;52.030;7.110;2023-05-24T09:47:30;25.70;;;7.28;;
41653;SDS011;68687;52.030;7.110;2023-05-24T09:50:13;18.88;;;6.88;;
41653;SDS011;68687;52.030;7.110;2023-05-24T09:52:39;29.45;;;7.70;;
41653;SDS011;68687;52.030;7.110;2023-05-24T09:55:15;19.60;;;6.45;;
41653;SDS011;68687;52.030;7.110;2023-05-24T09:57:49;18.42;;;6.82;;
41653;SDS011;68687;52.030;7.110;2023-05-24T10:00:22;20.88;;;6.05;;
41653;SDS011;68687;52.030;7.110;2023-05-24T10:02:58;22.10;;;6.53;;
41653;SDS011;68687;52.030;7.110;2023-05-24T10:05:34;19.02;;;6.93;;
41653;SDS011;68687;52.030;7.110;2023-05-24T10:08:00;21.10;;;7.60;;
41653;SDS011;68687;52.030;7.110;2023-05-24T10:10:32;27.73;;;8.40;;
41653;SDS011;68687;52.030;7.110;2023-05-24T10:13:01;20.73;;;6.93;;
41653;SDS011;68687;52.030;7.110;2023-05-24T10:15:32;24.42;;;9.20;;
41653;SDS011;68687;52.030;7.110;2023-05-24T10:17:58;29.23;;;8.02;;
41653;SDS011;68687;52.030;7.110;2023-05-24T10:20:32;17.92;;;8.02;;
41653;SDS011;68687;52.030;7.110;2023-05-24T10:23:03;17.63;;;8.38;;
41653;SDS011;68687;52.030;7.110;2023-05-24T10:25:40;24.13;;;7.47;;
41653;SDS011;68687;52.030;7.110;2023-05-24T10:28:10;25.00;;;7.53;;
41653;SDS011;68687;52.030;7.110;2023-05-24T10:30:41;23.10;;;8.13;;
41653;SDS011;68687;52.030;7.110;2023-05-24T10:33:12;24.40;;;7.45;;
41653;SDS011;68687;52.030;7.110;2023-05-24T10:35:38;20.00;;;7.15;;
41653;SDS011;68687;52.030;7.110;2023-05-24T10:38:05;25.20;;;7.85;;
41653;SDS011;68687;52.030;7.110;2023-05-24T10:40:35;20.60;;;7.45;;
41653;SDS011;68687;52.030;7.110;2023-05-24T10:43:06;20.55;;;7.05;;
41653;SDS011;68687;52.030;7.110;2023-05-24T10:45:33;25.15;;;6.85;;
41653;SDS011;68687;52.030;7.110;2023-05-24T10:48:06;28.65;;;7.93;;
41653;SDS011;68687;52.030;7.110;2023-05-24T10:50:33;20.02;;;7.72;;
41653;SDS011;68687;52.030;7.110;2023-05-24T10:53:16;23.00;;;7.25;;
41653;SDS011;68687;52.030;7.110;2023-05-24T10:55:56;29.52;;;8.38;;
41653;SDS011;68687;52.030;7.110;2023-05-24T10:58:25;21.42;;;7.50;;
41653;SDS011;68687;52.030;7.110;2023-05-24T11:04:03;26.65;;;7.80;;
41653;SDS011;68687;52.030;7.110;2023-05-24T11:09:29;22.92;;;8.15;;
41653;SDS011;68687;52.030;7.110;2023-05-24T11:11:59;27.58;;;7.60;;
41653;SDS011;68687;52.030;7.110;2023-05-24T11:14:29;22.30;;;7.63;;
41653;SDS011;68687;52.030;7.110;2023-05-24T11:16:56;26.63;;;8.65;;
41653;SDS011;68687;52.030;7.110;2023-05-24T11:19:36;19.48;;;7.60;;
41653;SDS011;68687;52.030;7.110;2023-05-24T11:22:09;19.92;;;7.03;;
41653;SDS011;68687;52.030;7.110;2023-05-24T11:24:39;25.13;;;7.43;;
41653;SDS011;68687;52.030;7.110;2023-05-24T11:27:11;23.05;;;8.20;;
41653;SDS011;68687;52.030;7.110;2023-05-24T11:29:46;34.15;;;7.65;;
41653;SDS011;68687;52.030;7.110;2023-05-24T11:32:13;26.27;;;8.07;;
41653;SDS011;68687;52.030;7.110;2023-05-24T11:34:40;32.75;;;8.48;;
41653;SDS011;68687;52.030;7.110;2023-05-24T11:37:12;22.70;;;7.93;;
41653;SDS011;68687;52.030;7.110;2023-05-24T11:39:37;24.65;;;8.18;;
41653;SDS011;68687;52.030;7.110;2023-05-24T11:42:09;21.15;;;8.35;;
41653;SDS011;68687;52.030;7.110;2023-05-24T11:44:35;26.00;;;7.85;;
41653;SDS011;68687;52.030;7.110;2023-05-24T11:47:04;18.42;;;7.35;;
41653;SDS011;68687;52.030;7.110;2023-05-24T11:49:32;26.38;;;8.73;;
41653;SDS011;68687;52.030;7.110;2023-05-24T11:52:01;27.48;;;10.80;;
41653;SDS011;68687;52.030;7.110;2023-05-24T11:54:27;19.25;;;7.72;;
41653;SDS011;68687;52.030;7.110;2023-05-24T11:56:53;18.80;;;7.35;;
41653;SDS011;68687;52.030;7.110;2023-05-24T11:59:23;19.38;;;7.13;;
41653;SDS011;68687;52.030;7.110;2023-05-24T12:01:56;19.75;;;8.30;;
41653;SDS011;68687;52.030;7.110;2023-05-24T12:04:24;24.92;;;7.10;;
41653;SDS011;68687;52.030;7.110;2023-05-24T12:06:52;17.33;;;7.13;;
41653;SDS011;68687;52.030;7.110;2023-05-24T12:09:21;17.77;;;6.95;;
41653;SDS011;68687;52.030;7.110;2023-05-24T12:11:48;18.45;;;6.85;;
41653;SDS011;68687;52.030;7.110;2023-05-24T12:14:24;24.50;;;6.53;;
41653;SDS011;68687;52.030;7.110;2023-05-24T12:17:03;29.67;;;8.70;;
41653;SDS011;68687;52.030;7.110;2023-05-24T12:19:29;24.33;;;7.57;;
41653;SDS011;68687;52.030;7.110;2023-05-24T12:22:04;24.08;;;6.32;;
41653;SDS011;68687;52.030;7.110;2023-05-24T12:24:31;18.55;;;6.60;;
41653;SDS011;68687;52.030;7.110;2023-05-24T12:27:00;21.95;;;7.43;;
41653;SDS011;68687;52.030;7.110;2023-05-24T12:29:34;21.83;;;6.80;;
41653;SDS011;68687;52.030;7.110;2023-05-24T12:32:09;18.40;;;6.45;;
41653;SDS011;68687;52.030;7.110;2023-05-24T12:34:41;17.13;;;7.18;;
41653;SDS011;68687;52.030;7.110;2023-05-24T12:37:10;18.92;;;7.00;;
41653;SDS011;68687;52.030;7.110;2023-05-24T12:39:36;17.55;;;6.78;;
41653;SDS011;68687;52.030;7.110;2023-05-24T12:42:05;18.35;;;6.70;;
41653;SDS011;68687;52.030;7.110;2023-05-24T12:44:32;19.38;;;6.72;;
41653;SDS011;68687;52.030;7.110;2023-05-24T12:47:05;18.63;;;7.03;;
41653;SDS011;68687;52.030;7.110;2023-05-24T12:49:32;17.00;;;7.05;;
41653;SDS011;68687;52.030;7.110;2023-05-24T12:51:57;17.40;;;6.10;;
41653;SDS011;68687;52.030;7.110;2023-05-24T12:54:26;13.77;;;5.95;;
41653;SDS011;68687;52.030;7.110;2023-05-24T12:56:53;22.13;;;7.53;;
41653;SDS011;68687;52.030;7.110;2023-05-24T12:59:19;16.15;;;6.40;;
41653;SDS011;68687;52.030;7.110;2023-05-24T13:01:45;22.02;;;7.03;;
41653;SDS011;68687;52.030;7.110;2023-05-24T13:04:20;15.40;;;6.32;;
41653;SDS011;68687;52.030;7.110;2023-05-24T13:06:47;19.15;;;6.60;;
41653;SDS011;68687;52.030;7.110;2023-05-24T13:09:13;17.35;;;6.40;;
41653;SDS011;68687;52.030;7.110;2023-05-24T13:11:39;21.00;;;6.72;;
41653;SDS011;68687;52.030;7.110;2023-05-24T13:14:05;18.80;;;7.20;;
41653;SDS011;68687;52.030;7.110;2023-05-24T13:16:30;18.95;;;7.32;;
41653;SDS011;68687;52.030;7.110;2023-05-24T13:18:56;15.50;;;6.70;;
41653;SDS011;68687;52.030;7.110;2023-05-24T13:21:21;14.45;;;6.50;;
41653;SDS011;68687;52.030;7.110;2023-05-24T13:23:46;19.45;;;6.78;;
41653;SDS011;68687;52.030;7.110;2023-05-24T13:26:12;20.92;;;7.32;;
41653;SDS011;68687;52.030;7.110;2023-05-24T13:28:50;16.73;;;6.53;;
41653;SDS011;68687;52.030;7.110;2023-05-24T13:31:19;19.23;;;6.63;;
41653;SDS011;68687;52.030;7.110;2023-05-24T13:33:50;17.20;;;6.40;;
41653;SDS011;68687;52.030;7.110;2023-05-24T13:36:15;20.38;;;6.57;;
41653;SDS011;68687;52.030;7.110;2023-05-24T13:38:41;13.02;;;5.60;;
41653;SDS011;68687;52.030;7.110;2023-05-24T13:41:06;20.63;;;6.20;;
41653;SDS011;68687;52.030;7.110;2023-05-24T13:43:31;15.85;;;6.10;;
41653;SDS011;68687;52.030;7.110;2023-05-24T13:46:00;13.23;;;5.90;;
41653;SDS011;68687;52.030;7.110;2023-05-24T13:48:25;21.40;;;6.72;;
41653;SDS011;68687;52.030;7.110;2023-05-24T13:50:50;16.17;;;5.93;;
41653;SDS011;68687;52.030;7.110;2023-05-24T13:53:19;14.70;;;5.47;;
41653;SDS011;68687;52.030;7.110;2023-05-24T13:55:46;12.05;;;5.50;;
41653;SDS011;68687;52.030;7.110;2023-05-24T13:58:11;16.38;;;6.00;;
41653;SDS011;68687;52.030;7.110;2023-05-24T14:00:36;13.65;;;6.18;;
41653;SDS011;68687;52.030;7.110;2023-05-24T14:03:05;17.88;;;7.07;;
41653;SDS011;68687;52.030;7.110;2023-05-24T14:05:30;13.73;;;5.40;;
41653;SDS011;68687;52.030;7.110;2023-05-24T14:07:56;26.27;;;6.68;;
41653;SDS011;68687;52.030;7.110;2023-05-24T14:10:27;15.05;;;5.80;;
41653;SDS011;68687;52.030;7.110;2023-05-24T14:12:52;17.10;;;6.75;;
41653;SDS011;68687;52.030;7.110;2023-05-24T14:15:20;24.05;;;6.72;;
41653;SDS011;68687;52.030;7.110;2023-05-24T14:17:45;19.80;;;6.72;;
41653;SDS011;68687;52.030;7.110;2023-05-24T14:20:14;13.82;;;5.72;;
41653;SDS011;68687;52.030;7.110;2023-05-24T14:22:39;20.55;;;7.07;;
41653;SDS011;68687;52.030;7.110;2023-05-24T14:25:05;14.68;;;5.72;;
41653;SDS011;68687;52.030;7.110;2023-05-24T14:27:31;19.20;;;6.20;;
41653;SDS011;68687;52.030;7.110;2023-05-24T14:29:57;15.82;;;5.88;;
41653;SDS011;68687;52.030;7.110;2023-05-24T14:32:22;12.95;;;6.47;;
41653;SDS011;68687;52.030;7.110;2023-05-24T14:34:47;15.07;;;6.82;;
41653;SDS011;68687;52.030;7.110;2023-05-24T14:37:13;17.98;;;6.13;;
41653;SDS011;68687;52.030;7.110;2023-05-24T14:39:38;19.75;;;6.55;;
41653;SDS011;68687;52.030;7.110;2023-05-24T14:42:03;19.38;;;5.95;;
41653;SDS011;68687;52.030;7.110;2023-05-24T14:44:29;18.30;;;5.80;;
41653;SDS011;68687;52.030;7.110;2023-05-24T14:46:54;14.35;;;5.00;;
41653;SDS011;68687;52.030;7.110;2023-05-24T14:49:20;21.90;;;6.65;;
41653;SDS011;68687;52.030;7.110;2023-05-24T14:51:46;21.08;;;6.57;;
41653;SDS011;68687;52.030;7.110;2023-05-24T14:54:20;13.20;;;5.82;;
41653;SDS011;68687;52.030;7.110;2023-05-24T14:56:46;10.05;;;5.28;;
41653;SDS011;68687;52.030;7.110;2023-05-24T14:59:11;13.18;;;5.47;;